createdAt,value
2018-05-17T00:00:41.909Z,6.77
2018-05-17T00:03:09.984Z,7.10
2018-05-17T00:05:38.828Z,7.30
2018-05-17T00:08:06.912Z,7.40
2018-05-17T00:10:35.016Z,7.80
2018-05-17T00:13:03.089Z,7.83
2018-05-17T00:15:31.981Z,7.40
2018-05-17T00:18:00.973Z,8.43
2018-05-17T00:20:29.037Z,9.13
2018-05-17T00:22:58.657Z,8.50
2018-05-17T00:25:27.506Z,8.87
2018-05-17T00:27:55.618Z,8.43
2018-05-17T00:30:23.893Z,8.33
2018-05-17T00:32:52.947Z,9.30
2018-05-17T00:35:21.025Z,9.50
2018-05-17T00:37:49.429Z,9.83
2018-05-17T00:40:17.477Z,9.70
2018-05-17T00:42:45.546Z,9.43
2018-05-17T00:45:13.919Z,9.60
2018-05-17T00:47:42.025Z,9.23
2018-05-17T00:50:10.140Z,10.03
2018-05-17T00:52:38.534Z,10.50
2018-05-17T00:55:06.648Z,10.47
2018-05-17T00:57:34.721Z,10.13
2018-05-17T01:00:03.601Z,11.60
2018-05-17T01:02:31.674Z,12.83
2018-05-17T01:04:59.756Z,11.97
2018-05-17T01:07:28.117Z,11.57
2018-05-17T01:09:56.204Z,11.30
2018-05-17T01:12:24.265Z,12.00
2018-05-17T01:14:52.360Z,12.20
2018-05-17T01:17:21.209Z,12.37
2018-05-17T01:19:49.276Z,13.83
2018-05-17T01:22:17.684Z,13.57
2018-05-17T01:24:45.778Z,13.63
2018-05-17T01:27:15.469Z,14.07
2018-05-17T01:29:45.081Z,13.70
2018-05-17T01:32:14.141Z,12.20
2018-05-17T01:34:42.209Z,12.63
2018-05-17T01:37:10.577Z,13.03
2018-05-17T01:39:38.655Z,13.53
2018-05-17T01:42:06.813Z,14.53
2018-05-17T01:44:35.090Z,14.50
2018-05-17T01:47:03.155Z,14.17
2018-05-17T01:49:31.248Z,15.43
2018-05-17T01:51:59.649Z,14.37
2018-05-17T01:54:27.738Z,14.33
2018-05-17T01:56:56.572Z,13.47
2018-05-17T01:59:25.002Z,14.30
2018-05-17T02:01:53.072Z,14.73
2018-05-17T02:04:21.153Z,14.43
2018-05-17T02:06:50.012Z,14.00
2018-05-17T02:09:18.498Z,14.77
2018-05-17T02:11:46.565Z,17.10
2018-05-17T02:14:14.871Z,17.80
2018-05-17T02:16:42.984Z,26.20
2018-05-17T02:19:11.094Z,26.40
2018-05-17T02:21:39.196Z,28.53
2018-05-17T02:24:08.029Z,28.57
2018-05-17T02:26:36.113Z,33.50
2018-05-17T02:29:04.481Z,35.27
2018-05-17T02:31:32.556Z,34.50
2018-05-17T02:34:00.821Z,35.60
2018-05-17T02:36:29.315Z,35.40
2018-05-17T02:38:57.421Z,34.63
2018-05-17T02:41:25.465Z,34.00
2018-05-17T02:43:53.556Z,35.33
2018-05-17T02:46:21.889Z,35.90
2018-05-17T02:48:49.961Z,38.30
2018-05-17T02:51:18.395Z,36.23
2018-05-17T02:53:46.488Z,37.60
2018-05-17T02:56:15.353Z,38.13
2018-05-17T02:58:43.932Z,38.83
2018-05-17T03:01:11.981Z,39.50
2018-05-17T03:03:40.080Z,41.83
2018-05-17T03:06:08.201Z,43.47
2018-05-17T03:08:36.268Z,42.20
2018-05-17T03:11:04.448Z,44.83
2018-05-17T03:13:32.577Z,47.47
2018-05-17T03:16:01.410Z,48.17
2018-05-17T03:18:29.480Z,49.40
2018-05-17T03:20:58.117Z,50.37
2018-05-17T03:23:27.293Z,48.57
2018-05-17T03:25:55.373Z,50.13
2018-05-17T03:28:23.490Z,52.33
2018-05-17T03:30:51.575Z,52.57
2018-05-17T03:33:20.426Z,53.70
2018-05-17T03:35:49.313Z,51.80
2018-05-17T03:38:18.205Z,53.60
2018-05-17T03:40:47.372Z,51.93
2018-05-17T03:43:16.809Z,51.13
2018-05-17T03:45:45.713Z,51.50
2018-05-17T03:48:14.590Z,51.03
2018-05-17T03:50:42.726Z,55.47
2018-05-17T03:53:10.834Z,54.03
2018-05-17T03:55:39.725Z,51.60
2018-05-17T03:58:08.917Z,51.37
2018-05-17T04:00:36.997Z,51.97
2018-05-17T04:03:05.869Z,49.33
2018-05-17T04:05:34.003Z,47.93
2018-05-17T04:08:02.094Z,50.13
2018-05-17T04:10:30.205Z,48.50
2018-05-17T04:12:59.095Z,46.00
2018-05-17T04:15:27.952Z,46.13
2018-05-17T04:17:56.059Z,43.30
2018-05-17T04:20:25.244Z,43.10
2018-05-17T04:22:54.245Z,43.33
2018-05-17T04:25:22.318Z,41.07
2018-05-17T04:27:51.185Z,39.30
2018-05-17T04:30:19.261Z,39.13
2018-05-17T04:32:48.112Z,37.63
2018-05-17T04:35:16.413Z,38.63
2018-05-17T04:37:44.781Z,38.03
2018-05-17T04:40:12.876Z,37.97
2018-05-17T04:42:40.933Z,35.97
2018-05-17T04:45:09.509Z,37.60
2018-05-17T04:47:37.784Z,36.27
2018-05-17T04:50:05.868Z,36.70
2018-05-17T04:52:34.269Z,35.73
2018-05-17T04:55:02.349Z,35.03
2018-05-17T04:57:31.201Z,34.20
2018-05-17T04:59:59.908Z,31.97
2018-05-17T05:02:28.805Z,35.30
2018-05-17T05:04:56.904Z,33.00
2018-05-17T05:07:25.357Z,33.87
2018-05-17T05:09:53.404Z,32.53
2018-05-17T05:12:22.017Z,33.27
2018-05-17T05:14:50.076Z,33.23
2018-05-17T05:17:18.184Z,30.93
2018-05-17T05:19:46.313Z,32.17
2018-05-17T05:22:14.401Z,31.97
2018-05-17T05:24:42.478Z,31.23
2018-05-17T05:27:11.369Z,30.87
2018-05-17T05:29:40.201Z,31.47
2018-05-17T05:32:09.225Z,31.87
2018-05-17T05:34:38.023Z,29.83
2018-05-17T05:37:06.905Z,29.37
2018-05-17T05:39:35.969Z,30.70
2018-05-17T05:42:04.689Z,30.10
2018-05-17T05:44:33.453Z,31.83
2018-05-17T05:47:02.271Z,31.87
2018-05-17T05:49:31.078Z,32.73
2018-05-17T05:52:00.884Z,32.57
2018-05-17T05:54:30.886Z,32.90
2018-05-17T05:57:00.350Z,31.93
2018-05-17T05:59:29.421Z,32.37
2018-05-17T06:01:59.085Z,31.53
2018-05-17T06:04:27.765Z,32.00
2018-05-17T06:06:55.837Z,32.93
2018-05-17T06:09:24.706Z,32.67
2018-05-17T06:11:53.311Z,35.07
2018-05-17T06:14:21.413Z,34.60
2018-05-17T06:16:51.219Z,34.13
2018-05-17T06:19:20.136Z,34.17
2018-05-17T06:21:49.950Z,36.00
2018-05-17T06:24:19.406Z,35.57
2018-05-17T06:26:48.842Z,34.77
2018-05-17T06:29:18.401Z,34.23
2018-05-17T06:31:47.032Z,34.70
2018-05-17T06:34:15.901Z,35.17
2018-05-17T06:36:45.469Z,33.00
2018-05-17T06:39:13.542Z,34.43
2018-05-17T06:41:42.544Z,31.67
2018-05-17T06:44:11.719Z,32.33
2018-05-17T06:46:40.341Z,32.17
2018-05-17T06:49:09.241Z,30.70
2018-05-17T06:51:38.061Z,29.97
2018-05-17T06:54:07.552Z,30.43
2018-05-17T06:56:36.520Z,30.00
2018-05-17T06:59:05.181Z,29.83
2018-05-17T07:01:34.033Z,30.90
2018-05-17T07:04:03.470Z,30.07
2018-05-17T07:06:32.181Z,29.37
2018-05-17T07:09:01.481Z,29.37
2018-05-17T07:11:30.217Z,30.00
2018-05-17T07:13:59.905Z,27.30
2018-05-17T07:16:29.372Z,28.13
2018-05-17T07:18:58.325Z,28.30
2018-05-17T07:21:26.987Z,28.63
2018-05-17T07:23:56.977Z,27.47
2018-05-17T07:26:25.765Z,30.27
2018-05-17T07:28:54.565Z,27.70
2018-05-17T07:31:23.253Z,28.30
2018-05-17T07:33:51.853Z,27.57
2018-05-17T07:36:21.557Z,26.27
2018-05-17T07:38:50.207Z,25.20
2018-05-17T07:41:18.668Z,24.47
2018-05-17T07:43:47.601Z,23.80
2018-05-17T07:46:17.181Z,23.55
2018-05-17T07:48:45.805Z,24.15
2018-05-17T07:51:14.685Z,23.98
2018-05-17T07:53:43.269Z,22.63
2018-05-17T07:56:11.333Z,21.98
2018-05-17T07:58:40.245Z,22.60
2018-05-17T08:01:09.517Z,22.35
2018-05-17T08:03:38.647Z,22.87
2018-05-17T08:06:09.432Z,22.60
2018-05-17T08:08:38.953Z,21.77
2018-05-17T08:11:08.137Z,23.70
2018-05-17T08:13:36.225Z,21.77
2018-05-17T08:16:05.037Z,22.15
2018-05-17T08:18:34.533Z,20.60
2018-05-17T08:21:03.156Z,19.37
2018-05-17T08:23:32.026Z,20.05
2018-05-17T08:26:01.825Z,20.48
2018-05-17T08:28:30.268Z,20.05
2018-05-17T08:30:59.714Z,20.17
2018-05-17T08:33:29.995Z,19.37
2018-05-17T08:35:58.846Z,19.87
2018-05-17T08:38:28.634Z,21.02
2018-05-17T08:40:57.534Z,19.87
2018-05-17T08:43:26.938Z,19.00
2018-05-17T08:45:55.777Z,18.42
2018-05-17T08:48:25.120Z,18.92
2018-05-17T08:50:53.908Z,19.33
2018-05-17T08:53:23.713Z,18.55
2018-05-17T08:55:52.422Z,18.90
2018-05-17T08:58:21.297Z,19.50
2018-05-17T09:00:49.382Z,20.02
2018-05-17T09:03:18.267Z,19.02
2018-05-17T09:05:48.268Z,18.73
2018-05-17T09:08:16.933Z,18.00
2018-05-17T09:10:45.132Z,18.87
2018-05-17T09:13:14.752Z,18.40
2018-05-17T09:15:43.829Z,17.90
2018-05-17T09:18:11.921Z,16.23
2018-05-17T09:20:41.783Z,16.23
2018-05-17T09:23:11.690Z,16.52
2018-05-17T09:25:40.804Z,15.93
2018-05-17T09:28:09.960Z,15.38
2018-05-17T09:30:39.333Z,15.30
2018-05-17T09:33:08.097Z,14.77
2018-05-17T09:35:37.712Z,14.32
2018-05-17T09:38:07.441Z,14.63
2018-05-17T09:40:36.230Z,13.73
2018-05-17T09:43:04.322Z,14.35
2018-05-17T09:45:33.540Z,14.55
2018-05-17T09:48:02.082Z,14.50
2018-05-17T09:50:30.923Z,14.27
2018-05-17T09:52:59.552Z,14.85
2018-05-17T09:55:28.417Z,14.93
2018-05-17T09:57:56.849Z,14.85
2018-05-17T10:00:26.081Z,15.70
2018-05-17T10:02:54.856Z,15.00
2018-05-17T10:05:22.924Z,14.15
2018-05-17T10:07:51.877Z,15.50
2018-05-17T10:10:22.052Z,13.45
2018-05-17T10:12:50.680Z,13.27
2018-05-17T10:15:20.319Z,13.52
2018-05-17T10:17:48.930Z,13.48
2018-05-17T10:20:17.616Z,13.27
2018-05-17T10:22:47.222Z,13.82
2018-05-17T10:25:15.953Z,13.23
2018-05-17T10:27:45.526Z,12.48
2018-05-17T10:30:14.516Z,13.20
2018-05-17T10:32:43.356Z,12.93
2018-05-17T10:35:12.248Z,12.73
2018-05-17T10:37:41.108Z,12.43
2018-05-17T10:40:09.910Z,12.80
2018-05-17T10:42:39.065Z,13.18
2018-05-17T10:45:07.749Z,15.20
2018-05-17T10:47:36.648Z,13.85
2018-05-17T10:50:04.747Z,16.40
2018-05-17T10:52:33.282Z,16.05
2018-05-17T10:55:01.349Z,15.77
2018-05-17T10:57:30.256Z,14.63
2018-05-17T10:59:59.289Z,13.85
2018-05-17T11:02:29.004Z,12.93
2018-05-17T11:04:58.039Z,11.30
2018-05-17T11:07:27.087Z,12.07
2018-05-17T11:09:55.144Z,12.75
2018-05-17T11:12:24.828Z,13.27
2018-05-17T11:14:53.654Z,13.80
2018-05-17T11:17:22.637Z,13.40
2018-05-17T11:19:51.529Z,14.05
2018-05-17T11:22:19.615Z,13.50
2018-05-17T11:24:48.297Z,14.32
2018-05-17T11:27:17.473Z,12.77
2018-05-17T11:29:46.349Z,14.25
2018-05-17T11:32:15.385Z,16.67
2018-05-17T11:34:44.873Z,17.00
2018-05-17T11:37:13.460Z,14.90
2018-05-17T11:39:42.346Z,14.48
2018-05-17T11:42:11.193Z,13.48
2018-05-17T11:44:39.798Z,12.65
2018-05-17T11:47:07.899Z,14.82
2018-05-17T11:49:36.653Z,15.48
2018-05-17T11:52:05.743Z,14.35
2018-05-17T11:54:34.564Z,14.85
2018-05-17T11:57:03.161Z,14.20
2018-05-17T11:59:32.757Z,14.90
2018-05-17T12:02:01.830Z,15.60
2018-05-17T12:04:30.648Z,13.95
2018-05-17T12:07:00.545Z,14.13
2018-05-17T12:09:29.221Z,12.15
2018-05-17T12:11:58.037Z,11.60
2018-05-17T12:14:26.818Z,13.13
2018-05-17T12:16:55.468Z,12.75
2018-05-17T12:19:24.609Z,11.12
2018-05-17T12:21:53.603Z,13.48
2018-05-17T12:24:22.365Z,12.45
2018-05-17T12:26:50.472Z,12.23
2018-05-17T12:29:19.553Z,13.70
2018-05-17T12:31:49.193Z,12.63
2018-05-17T12:34:18.673Z,12.88
2018-05-17T12:36:48.092Z,13.70
2018-05-17T12:39:16.816Z,12.20
2018-05-17T12:41:45.404Z,12.85
2018-05-17T12:44:14.336Z,12.95
2018-05-17T12:46:43.904Z,11.50
2018-05-17T12:49:11.973Z,12.88
2018-05-17T12:51:40.669Z,11.52
2018-05-17T12:54:09.256Z,12.52
2018-05-17T12:56:37.973Z,12.77
2018-05-17T12:59:07.765Z,11.18
2018-05-17T13:01:35.849Z,11.50
2018-05-17T13:04:04.605Z,12.15
2018-05-17T13:06:34.205Z,12.45
2018-05-17T13:09:03.239Z,14.25
2018-05-17T13:11:32.220Z,14.73
2018-05-17T13:14:00.273Z,13.85
2018-05-17T13:16:30.117Z,13.82
2018-05-17T13:19:00.469Z,13.35
2018-05-17T13:21:28.995Z,13.23
2018-05-17T13:23:58.325Z,12.32
2018-05-17T13:26:26.997Z,11.68
2018-05-17T13:28:56.268Z,11.70
2018-05-17T13:31:24.340Z,10.57
2018-05-17T13:33:52.413Z,11.20
2018-05-17T13:36:21.017Z,11.07
2018-05-17T13:38:49.925Z,10.02
2018-05-17T13:41:17.964Z,9.82
2018-05-17T13:43:46.939Z,8.90
2018-05-17T13:46:15.481Z,8.77
2018-05-17T13:48:46.129Z,8.55
2018-05-17T13:51:15.390Z,9.00
2018-05-17T13:53:43.440Z,9.75
2018-05-17T13:56:12.424Z,10.10
2018-05-17T13:58:41.125Z,11.27
2018-05-17T14:01:09.941Z,12.27
2018-05-17T14:03:38.025Z,12.77
2018-05-17T14:06:06.877Z,13.45
2018-05-17T14:08:35.230Z,12.27
2018-05-17T14:11:04.218Z,13.75
2018-05-17T14:13:32.949Z,14.32
2018-05-17T14:16:01.033Z,14.40
2018-05-17T14:18:29.707Z,14.43
2018-05-17T14:20:57.760Z,16.80
2018-05-17T14:23:25.817Z,19.27
2018-05-17T14:25:54.533Z,17.75
2018-05-17T14:28:22.613Z,19.67
2018-05-17T14:30:51.597Z,17.75
2018-05-17T14:33:19.684Z,18.37
2018-05-17T14:35:48.457Z,18.60
2018-05-17T14:38:16.941Z,19.25
2018-05-17T14:40:45.705Z,16.65
2018-05-17T14:43:13.769Z,17.33
2018-05-17T14:45:41.885Z,16.45
2018-05-17T14:48:09.956Z,16.17
2018-05-17T14:50:38.813Z,15.45
2018-05-17T14:53:06.902Z,14.90
2018-05-17T14:55:36.509Z,14.75
2018-05-17T14:58:04.564Z,13.27
2018-05-17T15:00:33.381Z,12.60
2018-05-17T15:03:03.401Z,11.90
2018-05-17T15:05:32.261Z,12.13
2018-05-17T15:08:00.961Z,11.43
2018-05-17T15:10:29.048Z,11.30
2018-05-17T15:12:57.120Z,10.73
2018-05-17T15:15:26.276Z,10.60
2018-05-17T15:17:55.177Z,11.20
2018-05-17T15:20:23.237Z,9.60
2018-05-17T15:22:51.309Z,11.18
2018-05-17T15:25:19.716Z,10.90
2018-05-17T15:27:48.465Z,11.15
2018-05-17T15:30:17.160Z,11.20
2018-05-17T15:32:45.850Z,9.88
2018-05-17T15:35:13.909Z,10.13
2018-05-17T15:37:42.837Z,10.48
2018-05-17T15:40:10.921Z,9.90
2018-05-17T15:42:40.384Z,9.38
2018-05-17T15:45:08.486Z,9.57
2018-05-17T15:47:36.573Z,8.95
2018-05-17T15:50:06.133Z,9.20
2018-05-17T15:52:34.960Z,8.27
2018-05-17T15:55:04.045Z,8.60
2018-05-17T15:57:33.141Z,8.23
2018-05-17T16:00:02.209Z,7.40
2018-05-17T16:02:31.025Z,8.35
2018-05-17T16:04:59.098Z,7.40
2018-05-17T16:07:27.180Z,7.78
2018-05-17T16:09:55.553Z,7.20
2018-05-17T16:12:23.617Z,7.68
2018-05-17T16:14:51.733Z,7.12
2018-05-17T16:17:20.065Z,6.93
2018-05-17T16:19:48.154Z,7.60
2018-05-17T16:22:16.220Z,7.40
2018-05-17T16:24:44.494Z,7.55
2018-05-17T16:27:12.811Z,7.60
2018-05-17T16:29:40.809Z,6.62
2018-05-17T16:32:09.592Z,6.20
2018-05-17T16:34:38.417Z,6.70
2018-05-17T16:37:06.469Z,6.47
2018-05-17T16:39:34.525Z,6.12
2018-05-17T16:42:03.625Z,6.93
2018-05-17T16:44:32.297Z,6.78
2018-05-17T16:47:00.993Z,7.00
2018-05-17T16:49:29.680Z,6.45
2018-05-17T16:51:58.662Z,6.85
2018-05-17T16:54:27.615Z,7.75
2018-05-17T16:56:55.575Z,7.35
2018-05-17T16:59:24.433Z,6.65
2018-05-17T17:01:53.441Z,7.05
2018-05-17T17:04:22.405Z,6.45
2018-05-17T17:06:50.544Z,7.40
2018-05-17T17:09:18.593Z,7.05
2018-05-17T17:11:47.268Z,7.90
2018-05-17T17:14:15.325Z,7.35
2018-05-17T17:16:43.406Z,7.65
2018-05-17T17:19:12.269Z,7.40
2018-05-17T17:21:40.336Z,7.35
2018-05-17T17:24:08.408Z,7.18
2018-05-17T17:26:36.788Z,7.37
2018-05-17T17:29:05.587Z,6.20
2018-05-17T17:31:34.365Z,5.20
2018-05-17T17:34:03.159Z,5.93
2018-05-17T17:36:31.240Z,5.53
2018-05-17T17:38:59.325Z,5.25
2018-05-17T17:41:27.710Z,5.53
2018-05-17T17:43:55.757Z,4.70
2018-05-17T17:46:23.818Z,4.65
2018-05-17T17:48:52.296Z,4.68
2018-05-17T17:51:21.216Z,4.87
2018-05-17T17:53:49.302Z,4.28
2018-05-17T17:56:17.340Z,4.20
2018-05-17T17:58:46.325Z,3.45
2018-05-17T18:01:14.409Z,4.07
2018-05-17T18:03:42.497Z,3.60
2018-05-17T18:06:10.597Z,4.43
2018-05-17T18:08:39.414Z,3.90
2018-05-17T18:11:07.489Z,3.97
2018-05-17T18:13:35.573Z,3.72
2018-05-17T18:16:03.637Z,3.67
2018-05-17T18:18:31.704Z,3.72
2018-05-17T18:20:59.816Z,3.87
2018-05-17T18:23:27.868Z,3.95
2018-05-17T18:25:55.928Z,4.43
2018-05-17T18:28:24.745Z,4.35
2018-05-17T18:30:52.797Z,3.67
2018-05-17T18:33:20.860Z,3.75
2018-05-17T18:35:48.957Z,4.00
2018-05-17T18:38:17.045Z,4.12
2018-05-17T18:40:45.089Z,3.90
2018-05-17T18:43:13.216Z,3.67
2018-05-17T18:45:42.025Z,3.08
2018-05-17T18:48:10.120Z,4.00
2018-05-17T18:50:38.270Z,3.87
2018-05-17T18:53:06.338Z,4.07
2018-05-17T18:55:34.413Z,3.85
2018-05-17T18:58:02.484Z,4.15
2018-05-17T19:00:30.581Z,3.75
2018-05-17T19:02:58.670Z,3.53
2018-05-17T19:05:27.044Z,4.12
2018-05-17T19:07:55.117Z,3.83
2018-05-17T19:10:23.193Z,4.00
2018-05-17T19:12:51.641Z,4.20
2018-05-17T19:15:19.700Z,3.70
2018-05-17T19:17:47.781Z,4.10
2018-05-17T19:20:15.935Z,3.95
2018-05-17T19:22:43.973Z,3.63
2018-05-17T19:25:12.805Z,4.03
2018-05-17T19:27:41.192Z,3.67
2018-05-17T19:30:09.461Z,3.72
2018-05-17T19:32:37.557Z,3.80
2018-05-17T19:35:06.328Z,4.27
2018-05-17T19:37:34.417Z,3.80
2018-05-17T19:40:02.501Z,4.10
2018-05-17T19:42:30.881Z,4.13
2018-05-17T19:44:58.932Z,4.40
2018-05-17T19:47:26.992Z,4.17
2018-05-17T19:49:55.405Z,3.80
2018-05-17T19:52:23.452Z,4.23
2018-05-17T19:54:51.521Z,4.60
2018-05-17T19:57:19.644Z,3.90
2018-05-17T19:59:48.489Z,4.63
2018-05-17T20:02:16.576Z,3.77
2018-05-17T20:04:44.937Z,4.43
2018-05-17T20:07:13.024Z,4.40
2018-05-17T20:09:41.113Z,4.40
2018-05-17T20:12:09.555Z,4.70
2018-05-17T20:14:37.617Z,4.30
2018-05-17T20:17:05.709Z,4.20
2018-05-17T20:19:34.288Z,4.50
2018-05-17T20:22:02.361Z,4.57
2018-05-17T20:24:30.449Z,4.57
2018-05-17T20:26:58.545Z,4.20
2018-05-17T20:29:27.393Z,4.30
2018-05-17T20:31:56.640Z,3.80
2018-05-17T20:34:24.742Z,4.27
2018-05-17T20:36:52.814Z,4.40
2018-05-17T20:39:20.896Z,4.67
2018-05-17T20:41:48.957Z,4.03
2018-05-17T20:44:17.064Z,4.17
2018-05-17T20:46:45.121Z,4.47
2018-05-17T20:49:13.181Z,4.20
2018-05-17T20:51:41.240Z,4.93
2018-05-17T20:54:09.528Z,4.07
2018-05-17T20:56:37.588Z,3.97
2018-05-17T20:59:05.685Z,4.40
2018-05-17T21:01:34.048Z,3.90
2018-05-17T21:04:02.113Z,4.50
2018-05-17T21:06:30.193Z,4.30
2018-05-17T21:08:58.673Z,4.53
2018-05-17T21:11:26.736Z,4.33
2018-05-17T21:13:54.802Z,4.47
2018-05-17T21:16:23.121Z,4.40
2018-05-17T21:18:51.193Z,4.37
2018-05-17T21:21:19.257Z,5.17
2018-05-17T21:23:48.024Z,5.07
2018-05-17T21:26:16.086Z,4.20
2018-05-17T21:28:44.160Z,4.63
2018-05-17T21:31:12.453Z,4.50
2018-05-17T21:33:40.541Z,4.83
2018-05-17T21:36:08.585Z,4.37
2018-05-17T21:38:36.965Z,4.40
2018-05-17T21:41:05.049Z,4.43
2018-05-17T21:43:33.148Z,3.97
2018-05-17T21:46:01.212Z,4.27
2018-05-17T21:48:29.340Z,4.40
2018-05-17T21:50:57.437Z,4.70
2018-05-17T21:53:25.521Z,4.00
2018-05-17T21:55:53.564Z,4.60
2018-05-17T21:58:21.648Z,4.33
2018-05-17T22:00:49.741Z,4.27
2018-05-17T22:03:17.808Z,4.27
2018-05-17T22:05:45.850Z,4.63
2018-05-17T22:08:13.973Z,5.23
2018-05-17T22:10:42.799Z,4.97
2018-05-17T22:13:10.871Z,5.20
2018-05-17T22:15:38.921Z,5.20
2018-05-17T22:18:06.965Z,4.87
2018-05-17T22:20:35.829Z,5.37
2018-05-17T22:23:03.913Z,4.47
2018-05-17T22:25:32.074Z,4.63
2018-05-17T22:28:00.121Z,4.40
2018-05-17T22:30:28.537Z,4.60
2018-05-17T22:32:56.609Z,4.63
2018-05-17T22:35:24.652Z,4.90
2018-05-17T22:37:53.033Z,4.07
2018-05-17T22:40:21.126Z,4.53
2018-05-17T22:42:49.201Z,5.23
2018-05-17T22:45:17.581Z,4.73
2018-05-17T22:47:45.638Z,4.97
2018-05-17T22:50:13.693Z,4.07
2018-05-17T22:52:42.001Z,4.73
2018-05-17T22:55:10.041Z,4.57
2018-05-17T22:57:38.126Z,5.03
2018-05-17T23:00:06.593Z,5.10
2018-05-17T23:02:34.785Z,4.57
2018-05-17T23:05:02.840Z,4.93
2018-05-17T23:07:31.218Z,5.23
2018-05-17T23:09:59.301Z,5.73
2018-05-17T23:12:27.373Z,4.70
2018-05-17T23:14:55.736Z,3.90
2018-05-17T23:17:23.833Z,4.90
2018-05-17T23:19:51.892Z,4.53
2018-05-17T23:22:20.169Z,4.40
2018-05-17T23:24:48.229Z,4.63
2018-05-17T23:27:16.572Z,5.57
2018-05-17T23:29:44.667Z,4.33
2018-05-17T23:32:12.709Z,4.67
2018-05-17T23:34:41.553Z,4.87
2018-05-17T23:37:10.149Z,4.77
2018-05-17T23:39:39.013Z,4.80
2018-05-17T23:42:07.072Z,4.20
2018-05-17T23:44:35.187Z,4.57
2018-05-17T23:47:03.973Z,5.07
2018-05-17T23:49:32.016Z,5.10
2018-05-17T23:52:00.105Z,4.60
2018-05-17T23:54:28.185Z,5.17
2018-05-17T23:56:56.229Z,4.17
2018-05-17T23:59:24.294Z,5.37
